Time;durP1;ratioP1;P1;durP2;ratioP2;P2;SDS_P1;SDS_P2;PMS_P1;PMS_P2;Temp;Humidity;BMP_temperature;BMP_pressure;BME280_temperature;BME280_humidity;BME280_pressure;Samples;Min_cycle;Max_cycle;Signal;HPM_P1;HPM_P2
2021/01/15 00:01:07;;;;;;;;;;;19.60;34.70;;;;;;491651;240;2132;-54
2021/01/15 00:03:08;;;;;;;;;;;19.60;34.70;;;;;;491680;240;1066;-53
2021/01/15 00:05:09;;;;;;;;;;;19.70;34.70;;;;;;491619;240;1063;-54
2021/01/15 00:07:11;;;;;;;;;;;19.70;34.80;;;;;;491571;240;1053;-54
2021/01/15 00:09:12;;;;;;;;;;;19.70;34.70;;;;;;491858;240;1070;-54
2021/01/15 00:11:13;;;;;;;;;;;19.70;34.70;;;;;;491674;240;1086;-53
2021/01/15 00:13:15;;;;;;;;;;;19.70;34.70;;;;;;491708;240;1133;-54
2021/01/15 00:15:16;;;;;;;;;;;19.70;34.70;;;;;;491742;240;1002;-54
2021/01/15 00:17:17;;;;;;;;;;;19.70;34.70;;;;;;491606;240;1293;-54
2021/01/15 00:19:18;;;;;;;;;;;19.70;34.70;;;;;;491733;240;1026;-54
2021/01/15 00:21:20;;;;;;;;;;;19.70;34.70;;;;;;491709;240;2180;-54
2021/01/15 00:23:21;;;;;;;;;;;19.70;34.70;;;;;;491745;240;1298;-53
2021/01/15 00:25:22;;;;;;;;;;;19.70;34.70;;;;;;491649;240;1063;-54
2021/01/15 00:27:24;;;;;;;;;;;19.70;34.60;;;;;;491714;240;1214;-53
2021/01/15 00:29:27;;;;;;;;;;;19.70;34.60;;;;;;491734;240;1069;-54
2021/01/15 00:31:26;;;;;;;;;;;19.80;34.70;;;;;;491852;240;1399;-54
2021/01/15 00:33:28;;;;;;;;;;;19.80;34.70;;;;;;491638;240;1217;-54
2021/01/15 00:35:29;;;;;;;;;;;19.70;34.60;;;;;;491847;240;1034;-54
2021/01/15 00:37:30;;;;;;;;;;;19.70;34.60;;;;;;491667;240;1312;-54
2021/01/15 00:39:31;;;;;;;;;;;19.80;34.60;;;;;;491729;240;1050;-54
2021/01/15 00:41:33;;;;;;;;;;;19.80;34.60;;;;;;491656;240;2137;-54
2021/01/15 00:43:34;;;;;;;;;;;19.80;34.70;;;;;;491548;240;1155;-53
2021/01/15 00:45:36;;;;;;;;;;;19.80;34.60;;;;;;491689;240;1077;-54
2021/01/15 00:47:37;;;;;;;;;;;19.70;34.60;;;;;;491613;240;984;-54
2021/01/15 00:49:38;;;;;;;;;;;19.70;34.60;;;;;;491766;240;956;-54
2021/01/15 00:51:40;;;;;;;;;;;19.80;34.60;;;;;;491522;240;1171;-54
2021/01/15 00:53:41;;;;;;;;;;;19.80;34.60;;;;;;491750;240;1056;-54
2021/01/15 00:55:42;;;;;;;;;;;19.80;34.60;;;;;;491710;240;1232;-54
2021/01/15 00:57:43;;;;;;;;;;;19.80;34.50;;;;;;491746;240;1155;-53
2021/01/15 00:59:45;;;;;;;;;;;19.80;34.60;;;;;;491786;240;1021;-54
2021/01/15 01:01:46;;;;;;;;;;;19.80;34.60;;;;;;491620;240;2195;-54
2021/01/15 01:03:47;;;;;;;;;;;19.80;34.60;;;;;;491650;240;1060;-54
2021/01/15 01:05:49;;;;;;;;;;;19.80;34.50;;;;;;491452;240;1393;-54
2021/01/15 01:07:50;;;;;;;;;;;19.80;34.60;;;;;;491738;240;1039;-54
2021/01/15 01:09:51;;;;;;;;;;;19.80;34.50;;;;;;491657;240;1058;-53
2021/01/15 01:11:53;;;;;;;;;;;19.80;34.50;;;;;;491775;240;1016;-54
2021/01/15 01:13:54;;;;;;;;;;;19.80;34.40;;;;;;491672;240;1193;-54
2021/01/15 01:15:55;;;;;;;;;;;19.80;34.50;;;;;;491677;240;1060;-54
2021/01/15 01:17:56;;;;;;;;;;;19.80;34.50;;;;;;491570;240;1050;-53
2021/01/15 01:19:58;;;;;;;;;;;19.90;34.50;;;;;;491644;240;981;-53
2021/01/15 01:21:59;;;;;;;;;;;19.80;34.50;;;;;;491833;240;2149;-54
2021/01/15 01:24:00;;;;;;;;;;;19.80;34.50;;;;;;491659;240;1362;-53
2021/01/15 01:26:02;;;;;;;;;;;19.80;34.40;;;;;;491634;240;1060;-53
2021/01/15 01:28:03;;;;;;;;;;;19.80;34.40;;;;;;491634;239;1290;-54
2021/01/15 01:30:04;;;;;;;;;;;19.90;34.40;;;;;;491682;240;1086;-54
2021/01/15 01:32:05;;;;;;;;;;;19.90;34.50;;;;;;491698;240;1054;-54
2021/01/15 01:34:08;;;;;;;;;;;19.90;34.50;;;;;;491677;240;980;-54
2021/01/15 01:36:10;;;;;;;;;;;19.90;34.40;;;;;;491639;240;1077;-54
2021/01/15 01:38:11;;;;;;;;;;;19.90;34.50;;;;;;491732;240;1229;-54
2021/01/15 01:40:12;;;;;;;;;;;19.90;34.40;;;;;;491662;240;956;-54
2021/01/15 01:42:14;;;;;;;;;;;19.90;34.40;;;;;;491738;240;2144;-53
2021/01/15 01:44:15;;;;;;;;;;;19.90;34.40;;;;;;491666;240;1210;-54
2021/01/15 01:46:16;;;;;;;;;;;19.90;34.40;;;;;;491779;240;1065;-53
2021/01/15 01:48:17;;;;;;;;;;;19.90;34.50;;;;;;491703;240;1233;-54
2021/01/15 01:50:19;;;;;;;;;;;19.90;34.40;;;;;;491640;240;1035;-54
2021/01/15 01:52:20;;;;;;;;;;;19.90;34.40;;;;;;491574;240;1477;-54
2021/01/15 01:54:21;;;;;;;;;;;19.90;34.40;;;;;;491665;240;1056;-54
2021/01/15 01:56:22;;;;;;;;;;;19.90;34.40;;;;;;491703;240;1059;-54
2021/01/15 01:58:24;;;;;;;;;;;19.90;34.40;;;;;;491646;240;1135;-54
2021/01/15 02:00:25;;;;;;;;;;;19.90;34.40;;;;;;491687;240;1056;-54
2021/01/15 02:02:26;;;;;;;;;;;19.90;34.40;;;;;;491640;240;2184;-54
2021/01/15 02:04:28;;;;;;;;;;;19.90;34.40;;;;;;491823;240;990;-54
2021/01/15 02:06:29;;;;;;;;;;;19.90;34.30;;;;;;491742;240;1274;-54
2021/01/15 02:08:30;;;;;;;;;;;19.90;34.30;;;;;;491640;240;1055;-53
2021/01/15 02:10:31;;;;;;;;;;;19.90;34.30;;;;;;491689;240;951;-53
2021/01/15 02:12:33;;;;;;;;;;;19.90;34.30;;;;;;491777;240;1285;-54
2021/01/15 02:14:34;;;;;;;;;;;19.90;34.30;;;;;;491722;240;1184;-54
2021/01/15 02:16:35;;;;;;;;;;;19.90;34.30;;;;;;491757;240;1131;-54
2021/01/15 02:18:37;;;;;;;;;;;19.90;34.30;;;;;;491811;240;1065;-52
2021/01/15 02:20:38;;;;;;;;;;;19.90;34.30;;;;;;491747;240;1051;-54
2021/01/15 02:22:40;;;;;;;;;;;19.90;34.30;;;;;;491731;240;2116;-54
2021/01/15 02:24:41;;;;;;;;;;;19.90;34.30;;;;;;491665;240;1031;-54
2021/01/15 02:26:42;;;;;;;;;;;19.90;34.30;;;;;;491756;240;1183;-54
2021/01/15 02:28:43;;;;;;;;;;;19.90;34.30;;;;;;491800;240;1182;-53
2021/01/15 02:30:45;;;;;;;;;;;20.00;34.30;;;;;;491756;240;963;-54
2021/01/15 02:32:46;;;;;;;;;;;20.00;35.00;;;;;;491567;240;1154;-53
2021/01/15 02:34:47;;;;;;;;;;;20.10;34.60;;;;;;491699;240;963;-54
2021/01/15 02:36:48;;;;;;;;;;;20.10;34.30;;;;;;491626;240;1331;-54
2021/01/15 02:38:50;;;;;;;;;;;20.10;34.30;;;;;;491693;240;1060;-53
2021/01/15 02:40:51;;;;;;;;;;;20.00;34.30;;;;;;491635;240;1027;-54
2021/01/15 02:42:52;;;;;;;;;;;19.90;34.40;;;;;;491620;240;2191;-54
2021/01/15 02:44:54;;;;;;;;;;;19.90;34.50;;;;;;491711;240;1167;-54
2021/01/15 02:46:56;;;;;;;;;;;19.80;34.60;;;;;;491873;240;987;-53
2021/01/15 02:48:58;;;;;;;;;;;19.80;34.70;;;;;;491669;240;978;-54
2021/01/15 02:50:59;;;;;;;;;;;19.70;34.70;;;;;;491613;240;1257;-54
2021/01/15 02:53:00;;;;;;;;;;;19.70;34.90;;;;;;491778;240;1033;-54
2021/01/15 02:55:01;;;;;;;;;;;19.60;34.80;;;;;;491873;240;1078;-53
2021/01/15 02:57:03;;;;;;;;;;;19.60;35.00;;;;;;491755;240;1052;-54
2021/01/15 02:59:04;;;;;;;;;;;19.60;35.10;;;;;;491621;240;1293;-54
2021/01/15 03:01:05;;;;;;;;;;;19.50;35.10;;;;;;491551;240;1193;-54
2021/01/15 03:03:07;;;;;;;;;;;19.50;35.20;;;;;;491600;240;2184;-53
2021/01/15 03:05:08;;;;;;;;;;;19.40;35.20;;;;;;491556;240;1091;-53
2021/01/15 03:07:09;;;;;;;;;;;19.40;33.90;;;;;;491731;240;1036;-54
2021/01/15 03:09:10;;;;;;;;;;;19.40;35.30;;;;;;491612;240;961;-53
2021/01/15 03:11:12;;;;;;;;;;;19.30;35.30;;;;;;491701;240;1022;-54
2021/01/15 03:13:13;;;;;;;;;;;19.30;35.40;;;;;;491762;240;1260;-54
2021/01/15 03:15:15;;;;;;;;;;;19.20;35.40;;;;;;491689;240;1118;-54
2021/01/15 03:17:16;;;;;;;;;;;19.20;35.50;;;;;;491672;240;1110;-53
2021/01/15 03:19:17;;;;;;;;;;;19.20;35.50;;;;;;491659;240;1063;-54
2021/01/15 03:21:18;;;;;;;;;;;19.10;35.50;;;;;;491764;240;972;-54
2021/01/15 03:23:20;;;;;;;;;;;19.10;35.60;;;;;;491567;240;2112;-53
2021/01/15 03:25:21;;;;;;;;;;;19.10;35.60;;;;;;491600;240;1047;-54
2021/01/15 03:27:22;;;;;;;;;;;19.00;35.60;;;;;;491564;240;1187;-53
2021/01/15 03:29:24;;;;;;;;;;;19.00;35.70;;;;;;491612;240;1378;-54
2021/01/15 03:31:25;;;;;;;;;;;19.00;35.70;;;;;;491610;240;1010;-54
2021/01/15 03:33:26;;;;;;;;;;;19.00;35.80;;;;;;491846;240;1248;-53
2021/01/15 03:35:27;;;;;;;;;;;18.90;35.80;;;;;;491657;240;1039;-54
2021/01/15 03:37:29;;;;;;;;;;;18.90;35.80;;;;;;491620;240;1301;-54
2021/01/15 03:39:30;;;;;;;;;;;18.90;35.80;;;;;;491782;240;978;-53
2021/01/15 03:41:31;;;;;;;;;;;18.90;35.90;;;;;;491723;240;2195;-54
2021/01/15 03:43:33;;;;;;;;;;;18.90;35.90;;;;;;491767;240;1122;-54
2021/01/15 03:45:34;;;;;;;;;;;18.80;35.90;;;;;;491736;240;2309;-54
2021/01/15 03:47:35;;;;;;;;;;;18.80;35.90;;;;;;491595;240;1310;-53
2021/01/15 03:49:36;;;;;;;;;;;18.80;36.00;;;;;;491795;240;1041;-53
2021/01/15 03:51:38;;;;;;;;;;;18.80;36.00;;;;;;491768;240;1231;-54
2021/01/15 03:53:39;;;;;;;;;;;18.70;36.00;;;;;;491616;240;1160;-53
2021/01/15 03:55:40;;;;;;;;;;;18.70;36.00;;;;;;491613;240;1029;-53
2021/01/15 03:57:42;;;;;;;;;;;18.70;36.10;;;;;;491577;240;1280;-54
2021/01/15 03:59:43;;;;;;;;;;;18.70;36.10;;;;;;491604;240;1202;-53
2021/01/15 04:01:45;;;;;;;;;;;18.70;36.10;;;;;;491790;240;2196;-53
2021/01/15 04:03:45;;;;;;;;;;;18.70;36.10;;;;;;491596;241;1416;-54
2021/01/15 04:05:47;;;;;;;;;;;18.60;36.10;;;;;;491821;240;1050;-54
2021/01/15 04:07:48;;;;;;;;;;;18.60;36.10;;;;;;491773;240;1214;-53
2021/01/15 04:09:49;;;;;;;;;;;18.60;34.80;;;;;;491611;240;1078;-53
2021/01/15 04:11:51;;;;;;;;;;;18.60;36.20;;;;;;491688;240;989;-54
2021/01/15 04:13:52;;;;;;;;;;;18.50;36.10;;;;;;491749;240;1322;-53
2021/01/15 04:15:53;;;;;;;;;;;18.50;36.10;;;;;;491682;240;1177;-54
2021/01/15 04:17:54;;;;;;;;;;;18.50;36.20;;;;;;491736;240;1316;-54
2021/01/15 04:19:56;;;;;;;;;;;18.50;36.20;;;;;;491616;240;983;-53
2021/01/15 04:21:57;;;;;;;;;;;18.50;36.20;;;;;;491611;240;2132;-54
2021/01/15 04:23:58;;;;;;;;;;;18.50;36.20;;;;;;491720;240;1410;-54
2021/01/15 04:25:59;;;;;;;;;;;18.50;36.30;;;;;;491781;240;1031;-54
2021/01/15 04:28:02;;;;;;;;;;;18.40;36.20;;;;;;491895;240;1337;-54
2021/01/15 04:30:03;;;;;;;;;;;18.40;36.20;;;;;;491630;240;2209;-53
2021/01/15 04:32:03;;;;;;;;;;;18.40;36.30;;;;;;491599;240;1770;-54
2021/01/15 04:34:04;;;;;;;;;;;18.40;36.30;;;;;;491738;240;1053;-53
2021/01/15 04:36:06;;;;;;;;;;;18.40;36.30;;;;;;491783;240;988;-53
2021/01/15 04:38:07;;;;;;;;;;;18.40;36.30;;;;;;491629;240;1075;-54
2021/01/15 04:40:08;;;;;;;;;;;18.40;36.30;;;;;;491652;240;1092;-54
2021/01/15 04:42:10;;;;;;;;;;;18.40;36.30;;;;;;491678;240;2189;-53
2021/01/15 04:44:11;;;;;;;;;;;18.40;36.30;;;;;;491627;240;932;-53
2021/01/15 04:46:12;;;;;;;;;;;18.40;36.40;;;;;;491648;240;1192;-54
2021/01/15 04:48:14;;;;;;;;;;;18.30;36.30;;;;;;491758;240;1084;-53
2021/01/15 04:50:15;;;;;;;;;;;18.30;36.30;;;;;;491720;240;1037;-53
2021/01/15 04:52:16;;;;;;;;;;;18.30;36.30;;;;;;491697;240;1064;-54
2021/01/15 04:54:17;;;;;;;;;;;18.30;36.40;;;;;;491603;240;1057;-53
2021/01/15 04:56:19;;;;;;;;;;;18.30;36.40;;;;;;491616;240;1053;-53
2021/01/15 04:58:20;;;;;;;;;;;18.30;36.30;;;;;;491615;240;1035;-54
2021/01/15 05:00:21;;;;;;;;;;;18.30;36.20;;;;;;491575;240;1179;-54
2021/01/15 05:02:22;;;;;;;;;;;18.40;36.20;;;;;;491713;240;2152;-53
2021/01/15 05:04:24;;;;;;;;;;;18.40;36.00;;;;;;491582;240;1041;-54
2021/01/15 05:06:25;;;;;;;;;;;18.40;36.00;;;;;;491556;240;1031;-54
2021/01/15 05:08:26;;;;;;;;;;;18.40;35.90;;;;;;491643;240;1006;-54
2021/01/15 05:10:28;;;;;;;;;;;18.50;35.90;;;;;;491664;240;1069;-54
2021/01/15 05:12:29;;;;;;;;;;;18.50;35.80;;;;;;491673;240;1003;-54
2021/01/15 05:14:30;;;;;;;;;;;18.50;35.80;;;;;;491719;240;1339;-54
2021/01/15 05:16:31;;;;;;;;;;;18.60;35.80;;;;;;491635;240;1102;-53
2021/01/15 05:18:33;;;;;;;;;;;18.60;35.70;;;;;;491820;240;1054;-54
2021/01/15 05:20:34;;;;;;;;;;;18.60;35.70;;;;;;491558;240;1232;-54
2021/01/15 05:22:35;;;;;;;;;;;18.60;35.70;;;;;;491678;240;2179;-53
2021/01/15 05:24:37;;;;;;;;;;;18.60;35.60;;;;;;491693;240;1197;-54
2021/01/15 05:26:38;;;;;;;;;;;18.60;35.60;;;;;;491759;240;1142;-54
2021/01/15 05:28:39;;;;;;;;;;;18.70;35.60;;;;;;491679;240;990;-54
2021/01/15 05:30:41;;;;;;;;;;;18.70;35.60;;;;;;491576;238;1240;-54
2021/01/15 05:32:42;;;;;;;;;;;18.70;35.50;;;;;;491662;240;1088;-54
2021/01/15 05:34:43;;;;;;;;;;;18.70;35.50;;;;;;491537;240;986;-53
2021/01/15 05:36:44;;;;;;;;;;;18.70;35.40;;;;;;491499;240;1166;-54
2021/01/15 05:38:45;;;;;;;;;;;18.80;35.40;;;;;;491481;240;1162;-53
2021/01/15 05:40:47;;;;;;;;;;;18.80;35.40;;;;;;491667;240;1358;-54
2021/01/15 05:42:48;;;;;;;;;;;18.80;35.40;;;;;;491485;240;2129;-54
2021/01/15 05:44:49;;;;;;;;;;;18.80;35.30;;;;;;491553;240;1205;-53
2021/01/15 05:46:51;;;;;;;;;;;18.80;35.30;;;;;;491591;240;1156;-54
2021/01/15 05:48:53;;;;;;;;;;;18.90;35.30;;;;;;491570;240;1227;-54
2021/01/15 05:50:53;;;;;;;;;;;18.90;35.20;;;;;;491405;240;2139;-53
2021/01/15 05:52:55;;;;;;;;;;;18.90;35.20;;;;;;491461;240;1121;-54
2021/01/15 05:54:56;;;;;;;;;;;18.90;35.20;;;;;;491485;240;1419;-54
2021/01/15 05:56:57;;;;;;;;;;;18.90;35.20;;;;;;491525;240;1092;-54
2021/01/15 05:58:59;;;;;;;;;;;18.90;35.10;;;;;;491553;240;1032;-53
2021/01/15 06:01:00;;;;;;;;;;;19.00;35.20;;;;;;491547;240;1314;-54
2021/01/15 06:03:01;;;;;;;;;;;19.00;35.10;;;;;;491479;240;2136;-54
2021/01/15 06:05:02;;;;;;;;;;;19.00;35.10;;;;;;491463;240;990;-54
2021/01/15 06:07:04;;;;;;;;;;;19.00;35.10;;;;;;491447;240;1063;-54
2021/01/15 06:09:05;;;;;;;;;;;19.00;35.10;;;;;;491532;240;960;-54
2021/01/15 06:11:07;;;;;;;;;;;19.00;35.10;;;;;;491365;240;1046;-54
2021/01/15 06:13:08;;;;;;;;;;;19.00;35.00;;;;;;491231;240;1121;-53
2021/01/15 06:15:09;;;;;;;;;;;19.00;34.90;;;;;;491376;240;1165;-53
2021/01/15 06:17:10;;;;;;;;;;;19.10;35.00;;;;;;491456;240;1172;-54
2021/01/15 06:19:12;;;;;;;;;;;19.10;35.00;;;;;;491463;240;1188;-54
2021/01/15 06:21:13;;;;;;;;;;;19.10;34.90;;;;;;491448;240;1038;-54
2021/01/15 06:23:14;;;;;;;;;;;19.10;34.90;;;;;;491385;240;2137;-54
2021/01/15 06:25:16;;;;;;;;;;;19.10;34.80;;;;;;491356;240;1086;-53
2021/01/15 06:27:18;;;;;;;;;;;19.10;34.80;;;;;;491170;240;1171;-54
2021/01/15 06:29:20;;;;;;;;;;;19.10;34.80;;;;;;491242;240;1326;-54
2021/01/15 06:31:20;;;;;;;;;;;19.20;34.90;;;;;;491330;240;1527;-53
2021/01/15 06:33:22;;;;;;;;;;;19.20;34.80;;;;;;491336;240;1167;-54
2021/01/15 06:35:23;;;;;;;;;;;19.10;34.70;;;;;;491268;241;2038;-53
2021/01/15 06:37:24;;;;;;;;;;;19.20;34.80;;;;;;491180;240;1062;-53
2021/01/15 06:39:25;;;;;;;;;;;19.20;34.80;;;;;;491277;242;1113;-54
2021/01/15 06:41:27;;;;;;;;;;;19.20;34.70;;;;;;491311;240;1122;-54
2021/01/15 06:43:28;;;;;;;;;;;19.20;34.70;;;;;;491323;240;2188;-54
2021/01/15 06:45:29;;;;;;;;;;;19.30;34.70;;;;;;491286;240;1095;-54
2021/01/15 06:47:30;;;;;;;;;;;19.20;34.70;;;;;;491341;240;1209;-55
2021/01/15 06:49:32;;;;;;;;;;;19.30;34.70;;;;;;491391;240;1060;-54
2021/01/15 06:51:33;;;;;;;;;;;19.30;34.70;;;;;;491315;240;1101;-53
2021/01/15 06:53:38;;;;;;;;;;;19.30;33.30;;;;;;491310;240;1059;-54
2021/01/15 06:55:36;;;;;;;;;;;19.30;34.70;;;;;;491328;241;2338;-54
2021/01/15 06:57:37;;;;;;;;;;;19.30;34.60;;;;;;491207;240;1169;-54
2021/01/15 06:59:38;;;;;;;;;;;19.30;34.60;;;;;;491228;240;1130;-53
2021/01/15 07:01:40;;;;;;;;;;;19.30;33.30;;;;;;491116;240;1308;-53
2021/01/15 07:03:41;;;;;;;;;;;19.30;34.60;;;;;;491095;240;2203;-53
2021/01/15 07:05:43;;;;;;;;;;;19.30;34.60;;;;;;491115;240;1187;-54
2021/01/15 07:07:44;;;;;;;;;;;19.40;34.60;;;;;;491314;240;1028;-54
2021/01/15 07:09:46;;;;;;;;;;;19.40;34.50;;;;;;491277;240;1389;-53
2021/01/15 07:11:47;;;;;;;;;;;19.40;34.60;;;;;;491107;240;1104;-53
2021/01/15 07:13:48;;;;;;;;;;;19.40;34.60;;;;;;491099;240;1230;-53
2021/01/15 07:15:50;;;;;;;;;;;19.40;34.50;;;;;;491113;240;1289;-53
2021/01/15 07:17:53;;;;;;;;;;;19.40;34.50;;;;;;491128;240;1179;-53
2021/01/15 07:19:53;;;;;;;;;;;19.40;34.50;;;;;;490986;242;1815;-53
2021/01/15 07:21:54;;;;;;;;;;;19.40;34.50;;;;;;491089;240;1037;-54
2021/01/15 07:23:56;;;;;;;;;;;19.40;34.50;;;;;;491120;240;2137;-54
2021/01/15 07:25:57;;;;;;;;;;;19.40;34.50;;;;;;491158;240;1414;-54
2021/01/15 07:27:58;;;;;;;;;;;19.40;34.40;;;;;;491193;240;993;-53
2021/01/15 07:29:59;;;;;;;;;;;19.40;34.40;;;;;;491152;240;1221;-54
2021/01/15 07:32:00;;;;;;;;;;;19.40;34.40;;;;;;491084;240;1220;-54
2021/01/15 07:34:02;;;;;;;;;;;19.50;34.50;;;;;;491134;240;1011;-54
2021/01/15 07:36:03;;;;;;;;;;;19.50;34.40;;;;;;491037;240;1257;-54
2021/01/15 07:38:04;;;;;;;;;;;19.50;34.40;;;;;;491091;240;1197;-52
2021/01/15 07:40:05;;;;;;;;;;;19.50;34.40;;;;;;491087;240;1338;-53
2021/01/15 07:42:07;;;;;;;;;;;19.50;34.40;;;;;;491132;240;1145;-53
2021/01/15 07:44:08;;;;;;;;;;;19.50;34.40;;;;;;491126;240;2192;-54
2021/01/15 07:46:11;;;;;;;;;;;19.50;34.40;;;;;;491110;240;1179;-54
2021/01/15 07:48:11;;;;;;;;;;;19.50;33.00;;;;;;491095;240;1393;-54
2021/01/15 07:50:12;;;;;;;;;;;19.50;34.40;;;;;;491116;240;1022;-54
2021/01/15 07:52:13;;;;;;;;;;;19.50;34.40;;;;;;491146;240;1203;-54
2021/01/15 07:54:14;;;;;;;;;;;19.60;34.50;;;;;;490889;240;1208;-53
2021/01/15 07:56:16;;;;;;;;;;;19.50;34.30;;;;;;491014;240;1023;-54
2021/01/15 07:58:17;;;;;;;;;;;19.50;34.30;;;;;;491087;240;1022;-54
2021/01/15 08:00:18;;;;;;;;;;;19.60;34.40;;;;;;491113;240;1150;-54
2021/01/15 08:02:20;;;;;;;;;;;19.50;34.30;;;;;;491110;238;1293;-54
2021/01/15 08:04:21;;;;;;;;;;;19.60;34.40;;;;;;491081;240;2141;-54
2021/01/15 08:06:22;;;;;;;;;;;19.60;34.40;;;;;;490981;240;1069;-54
2021/01/15 08:08:23;;;;;;;;;;;19.60;34.30;;;;;;491023;240;1131;-53
2021/01/15 08:10:25;;;;;;;;;;;19.60;34.30;;;;;;490955;240;1102;-53
2021/01/15 08:12:26;;;;;;;;;;;19.60;34.30;;;;;;490784;240;1194;-54
2021/01/15 08:14:27;;;;;;;;;;;19.60;34.30;;;;;;490883;240;1134;-54
2021/01/15 08:16:29;;;;;;;;;;;19.60;34.30;;;;;;490976;240;1147;-54
2021/01/15 08:18:30;;;;;;;;;;;19.60;33.00;;;;;;490994;240;1244;-54
2021/01/15 08:20:31;;;;;;;;;;;19.60;34.30;;;;;;490932;240;1040;-53
2021/01/15 08:22:32;;;;;;;;;;;19.70;34.30;;;;;;490775;240;1217;-53
2021/01/15 08:24:34;;;;;;;;;;;19.60;34.30;;;;;;490862;240;2192;-54
2021/01/15 08:26:35;;;;;;;;;;;19.70;33.00;;;;;;490965;240;1042;-53
2021/01/15 08:28:36;;;;;;;;;;;19.60;34.20;;;;;;491043;240;1007;-54
2021/01/15 08:30:38;;;;;;;;;;;19.60;34.20;;;;;;491031;240;1177;-53
2021/01/15 08:32:39;;;;;;;;;;;19.70;34.30;;;;;;491026;240;1314;-53
2021/01/15 08:34:40;;;;;;;;;;;19.70;34.20;;;;;;491047;240;1060;-53
2021/01/15 08:36:41;;;;;;;;;;;19.70;34.30;;;;;;490994;240;1116;-54
2021/01/15 08:38:43;;;;;;;;;;;19.70;34.20;;;;;;491083;240;1087;-54
2021/01/15 08:40:44;;;;;;;;;;;19.70;34.20;;;;;;490943;240;1204;-53
2021/01/15 08:42:45;;;;;;;;;;;19.70;34.20;;;;;;490808;240;1032;-54
2021/01/15 08:44:46;;;;;;;;;;;19.70;34.20;;;;;;490842;240;2149;-53
2021/01/15 08:46:49;;;;;;;;;;;19.70;34.20;;;;;;490933;240;1143;-54
2021/01/15 08:48:50;;;;;;;;;;;19.70;34.20;;;;;;490923;240;1366;-54
2021/01/15 08:50:53;;;;;;;;;;;19.70;32.80;;;;;;491019;240;1107;-53
2021/01/15 08:52:54;;;;;;;;;;;19.80;34.20;;;;;;491014;240;1163;-54
2021/01/15 08:54:56;;;;;;;;;;;19.70;34.20;;;;;;491001;240;1146;-54
2021/01/15 08:56:57;;;;;;;;;;;19.70;34.20;;;;;;491251;240;1041;-53
2021/01/15 08:58:59;;;;;;;;;;;19.70;34.20;;;;;;490972;240;1090;-54
2021/01/15 09:01:00;;;;;;;;;;;19.80;34.20;;;;;;490970;240;1175;-53
2021/01/15 09:03:01;;;;;;;;;;;19.80;34.20;;;;;;491009;240;1190;-54
2021/01/15 09:05:03;;;;;;;;;;;19.70;34.10;;;;;;491034;240;2132;-54
2021/01/15 09:07:04;;;;;;;;;;;19.70;34.10;;;;;;491058;240;1185;-54
2021/01/15 09:09:05;;;;;;;;;;;19.80;34.20;;;;;;491021;240;1101;-54
2021/01/15 09:11:06;;;;;;;;;;;19.70;34.10;;;;;;491061;240;1061;-53
2021/01/15 09:13:07;;;;;;;;;;;19.80;32.80;;;;;;491098;240;1079;-54
2021/01/15 09:15:09;;;;;;;;;;;19.80;34.10;;;;;;491004;240;1050;-54
2021/01/15 09:17:10;;;;;;;;;;;19.80;34.10;;;;;;490867;240;1046;-54
2021/01/15 09:19:12;;;;;;;;;;;19.80;34.10;;;;;;490819;240;1138;-54
2021/01/15 09:21:13;;;;;;;;;;;19.80;34.10;;;;;;490750;240;1065;-53
2021/01/15 09:23:14;;;;;;;;;;;19.80;32.70;;;;;;490783;240;1178;-54
2021/01/15 09:25:16;;;;;;;;;;;19.80;34.10;;;;;;490938;240;2181;-53
2021/01/15 09:27:17;;;;;;;;;;;19.80;34.10;;;;;;491022;240;1105;-54
2021/01/15 09:29:18;;;;;;;;;;;19.80;34.10;;;;;;491035;240;1187;-54
2021/01/15 09:31:19;;;;;;;;;;;19.80;34.10;;;;;;490957;240;1230;-54
2021/01/15 09:33:21;;;;;;;;;;;19.80;34.10;;;;;;490830;240;1711;-54
2021/01/15 09:35:22;;;;;;;;;;;19.80;32.80;;;;;;490914;240;1096;-54
2021/01/15 09:37:24;;;;;;;;;;;19.80;34.10;;;;;;491029;240;1170;-53
2021/01/15 09:39:26;;;;;;;;;;;19.80;34.10;;;;;;491015;240;1097;-53
2021/01/15 09:41:26;;;;;;;;;;;19.80;34.00;;;;;;490960;240;1993;-54
2021/01/15 09:43:28;;;;;;;;;;;19.80;34.00;;;;;;490916;240;1140;-53
2021/01/15 09:45:29;;;;;;;;;;;19.80;34.00;;;;;;490887;240;2118;-54
2021/01/15 09:47:30;;;;;;;;;;;19.80;32.70;;;;;;491075;240;1065;-54
2021/01/15 09:49:32;;;;;;;;;;;19.80;34.00;;;;;;490981;240;1311;-54
2021/01/15 09:51:33;;;;;;;;;;;19.80;34.00;;;;;;490916;240;1192;-54
2021/01/15 09:53:34;;;;;;;;;;;19.90;34.10;;;;;;490885;240;1090;-54
2021/01/15 09:55:35;;;;;;;;;;;19.90;34.00;;;;;;490815;240;1279;-53
2021/01/15 09:57:43;;;;;;;;;;;19.90;32.70;;;;;;490782;240;1078;-54
2021/01/15 09:59:38;;;;;;;;;;;19.90;34.00;;;;;;490801;241;2076;-54
2021/01/15 10:01:39;;;;;;;;;;;19.90;34.00;;;;;;490863;240;1048;-54
2021/01/15 10:03:41;;;;;;;;;;;19.90;34.00;;;;;;490938;240;2205;-53
2021/01/15 10:05:42;;;;;;;;;;;19.90;34.00;;;;;;490784;240;1053;-54
2021/01/15 10:07:43;;;;;;;;;;;19.90;33.90;;;;;;490856;240;1068;-54
2021/01/15 10:09:44;;;;;;;;;;;19.90;34.00;;;;;;490939;240;1079;-54
2021/01/15 10:11:46;;;;;;;;;;;19.90;34.00;;;;;;490962;240;1325;-54
2021/01/15 10:13:47;;;;;;;;;;;19.90;34.00;;;;;;490965;240;981;-54
2021/01/15 10:15:49;;;;;;;;;;;19.90;34.00;;;;;;490931;240;1070;-53
2021/01/15 10:17:50;;;;;;;;;;;19.90;33.90;;;;;;490873;240;1225;-54
2021/01/15 10:19:51;;;;;;;;;;;19.90;32.70;;;;;;490879;240;1117;-53
2021/01/15 10:21:53;;;;;;;;;;;19.90;32.60;;;;;;490842;240;1334;-54
2021/01/15 10:23:55;;;;;;;;;;;19.90;32.60;;;;;;490965;240;2237;-54
2021/01/15 10:25:55;;;;;;;;;;;19.90;34.00;;;;;;490970;240;2133;-53
2021/01/15 10:27:57;;;;;;;;;;;19.90;33.90;;;;;;490964;240;1086;-53
2021/01/15 10:29:58;;;;;;;;;;;19.90;33.90;;;;;;490896;240;1246;-53
2021/01/15 10:32:00;;;;;;;;;;;19.90;33.90;;;;;;490844;240;1193;-54
2021/01/15 10:34:01;;;;;;;;;;;19.90;33.90;;;;;;490890;240;2293;-54
2021/01/15 10:36:02;;;;;;;;;;;20.00;34.00;;;;;;490955;240;1375;-54
2021/01/15 10:38:03;;;;;;;;;;;19.90;33.90;;;;;;490984;240;1019;-54
2021/01/15 10:40:05;;;;;;;;;;;19.90;33.90;;;;;;490974;240;1056;-52
2021/01/15 10:42:06;;;;;;;;;;;19.90;34.00;;;;;;490990;240;1290;-54
2021/01/15 10:44:07;;;;;;;;;;;20.00;34.10;;;;;;491009;240;2183;-54
2021/01/15 10:46:08;;;;;;;;;;;20.00;34.30;;;;;;490982;240;1019;-54
2021/01/15 10:48:10;;;;;;;;;;;20.10;34.00;;;;;;490982;240;1053;-53
2021/01/15 10:50:12;;;;;;;;;;;20.10;33.90;;;;;;491024;240;1201;-53
2021/01/15 10:52:12;;;;;;;;;;;20.10;34.00;;;;;;490833;242;1537;-54
2021/01/15 10:54:14;;;;;;;;;;;20.00;34.00;;;;;;490951;240;1126;-54
2021/01/15 10:56:15;;;;;;;;;;;19.90;34.10;;;;;;490859;240;1057;-53
2021/01/15 10:58:16;;;;;;;;;;;19.90;34.20;;;;;;490915;240;1145;-54
2021/01/15 11:00:18;;;;;;;;;;;19.80;34.30;;;;;;490987;239;1238;-54
2021/01/15 11:02:19;;;;;;;;;;;19.70;33.10;;;;;;490985;240;1087;-54
2021/01/15 11:04:20;;;;;;;;;;;19.70;34.40;;;;;;491050;240;2195;-53
2021/01/15 11:06:22;;;;;;;;;;;19.60;34.50;;;;;;490952;240;1089;-53
2021/01/15 11:08:23;;;;;;;;;;;19.60;34.60;;;;;;490852;240;1184;-54
2021/01/15 11:10:24;;;;;;;;;;;19.60;34.60;;;;;;490997;240;1277;-53
2021/01/15 11:12:25;;;;;;;;;;;19.50;34.70;;;;;;491066;240;1145;-53
2021/01/15 11:14:27;;;;;;;;;;;19.50;33.50;;;;;;491039;240;1120;-54
2021/01/15 11:21:44;;;;;;;;;;;19.40;35.00;;;;;;490892;242;2279;-53
2021/01/15 11:26:24;;;;;;;;;;;19.30;35.00;;;;;;491118;242;2141;-53
2021/01/15 11:28:25;;;;;;;;;;;19.30;33.80;;;;;;491023;240;1166;-54
2021/01/15 11:30:27;;;;;;;;;;;19.20;35.10;;;;;;491019;240;1050;-54
2021/01/15 11:32:28;;;;;;;;;;;19.20;35.20;;;;;;491097;240;1111;-53
2021/01/15 11:34:29;;;;;;;;;;;19.20;35.20;;;;;;491019;240;1062;-53
2021/01/15 11:36:30;;;;;;;;;;;19.10;35.20;;;;;;490873;240;1254;-53
2021/01/15 11:38:33;;;;;;;;;;;19.10;35.20;;;;;;490968;240;1029;-53
2021/01/15 11:40:34;;;;;;;;;;;19.10;35.30;;;;;;491000;240;1055;-53
2021/01/15 11:42:36;;;;;;;;;;;19.10;35.30;;;;;;491003;240;1270;-54
2021/01/15 11:44:37;;;;;;;;;;;19.10;35.30;;;;;;491110;240;2192;-53
2021/01/15 11:46:38;;;;;;;;;;;19.00;34.00;;;;;;491010;240;1142;-54
2021/01/15 11:48:40;;;;;;;;;;;19.00;35.30;;;;;;491004;240;1018;-53
2021/01/15 11:50:41;;;;;;;;;;;19.00;35.40;;;;;;491015;240;1054;-53
2021/01/15 11:52:44;;;;;;;;;;;19.00;35.40;;;;;;491111;240;1086;-53
2021/01/15 11:54:45;;;;;;;;;;;19.00;35.40;;;;;;491061;240;1035;-53
2021/01/15 11:56:46;;;;;;;;;;;19.00;35.50;;;;;;491022;240;1041;-53
2021/01/15 11:58:47;;;;;;;;;;;18.90;35.40;;;;;;490998;240;1179;-54
2021/01/15 12:00:49;;;;;;;;;;;18.90;34.10;;;;;;490874;240;1058;-53
2021/01/15 12:02:50;;;;;;;;;;;18.90;35.40;;;;;;490873;240;1035;-54
2021/01/15 12:04:51;;;;;;;;;;;18.90;35.50;;;;;;490840;240;2183;-53